createdAt,value
2019-01-25T00:00:36.271Z,1008.88
2019-01-25T00:01:36.275Z,1008.88
2019-01-25T00:02:36.314Z,1008.88
2019-01-25T00:03:36.300Z,1008.89
2019-01-25T00:04:36.295Z,1008.95
2019-01-25T00:05:36.306Z,1008.99
2019-01-25T00:06:36.310Z,1008.93
2019-01-25T00:07:36.315Z,1008.97
2019-01-25T00:08:36.336Z,1008.94
2019-01-25T00:09:36.331Z,1008.89
2019-01-25T00:10:36.336Z,1008.86
2019-01-25T00:11:36.341Z,1008.81
2019-01-25T00:12:36.350Z,1008.78
2019-01-25T00:13:36.354Z,1008.81
2019-01-25T00:14:36.363Z,1008.81
2019-01-25T00:15:36.370Z,1008.86
2019-01-25T00:16:36.376Z,1008.88
2019-01-25T00:17:36.381Z,1008.86
2019-01-25T00:18:36.473Z,1008.87
2019-01-25T00:19:36.401Z,1008.89
2019-01-25T00:20:36.407Z,1008.82
2019-01-25T00:21:36.442Z,1008.75
2019-01-25T00:22:36.413Z,1008.78
2019-01-25T00:23:36.424Z,1008.78
2019-01-25T00:24:36.457Z,1008.81
2019-01-25T00:25:36.437Z,1008.83
2019-01-25T00:26:36.478Z,1008.77
2019-01-25T00:27:36.458Z,1008.73
2019-01-25T00:28:36.466Z,1008.75
2019-01-25T00:29:36.467Z,1008.74
2019-01-25T00:30:36.467Z,1008.79
2019-01-25T00:31:36.482Z,1008.75
2019-01-25T00:32:36.488Z,1008.73
2019-01-25T00:33:36.490Z,1008.69
2019-01-25T00:34:36.515Z,1008.72
2019-01-25T00:35:36.501Z,1008.79
2019-01-25T00:36:36.526Z,1008.77
2019-01-25T00:37:36.520Z,1008.80
2019-01-25T00:38:36.519Z,1008.78
2019-01-25T00:39:36.530Z,1008.77
2019-01-25T00:40:36.536Z,1008.81
2019-01-25T00:41:36.549Z,1008.75
2019-01-25T00:42:36.551Z,1008.76
2019-01-25T00:43:36.557Z,1008.77
2019-01-25T00:44:36.567Z,1008.78
2019-01-25T00:45:36.569Z,1008.87
2019-01-25T00:46:36.582Z,1008.84
2019-01-25T00:47:36.618Z,1008.88
2019-01-25T00:48:36.595Z,1008.90
2019-01-25T00:49:36.600Z,1008.84
2019-01-25T00:50:36.624Z,1008.85
2019-01-25T00:51:36.608Z,1008.84
2019-01-25T00:52:36.637Z,1008.81
2019-01-25T00:53:36.620Z,1008.78
2019-01-25T00:54:36.687Z,1008.77
2019-01-25T00:55:36.648Z,1008.77
2019-01-25T00:56:36.654Z,1008.72
2019-01-25T00:57:36.653Z,1008.73
2019-01-25T00:58:36.655Z,1008.77
2019-01-25T00:59:36.666Z,1008.74
2019-01-25T01:00:36.677Z,1008.77
2019-01-25T01:01:36.705Z,1008.75
2019-01-25T01:02:36.686Z,1008.75
2019-01-25T01:03:36.710Z,1008.77
2019-01-25T01:04:36.704Z,1008.76
2019-01-25T01:05:36.699Z,1008.74
2019-01-25T01:06:36.704Z,1008.73
2019-01-25T01:07:36.728Z,1008.75
2019-01-25T01:08:36.721Z,1008.70
2019-01-25T01:09:36.734Z,1008.75
2019-01-25T01:10:36.738Z,1008.75
2019-01-25T01:11:36.742Z,1008.74
2019-01-25T01:12:36.757Z,1008.76
2019-01-25T01:13:36.767Z,1008.81
2019-01-25T01:14:36.810Z,1008.80
2019-01-25T01:15:36.770Z,1008.81
2019-01-25T01:16:36.774Z,1008.86
2019-01-25T01:17:36.782Z,1008.80
2019-01-25T01:18:36.788Z,1008.81
2019-01-25T01:19:36.797Z,1008.70
2019-01-25T01:20:36.831Z,1008.73
2019-01-25T01:21:36.808Z,1008.70
2019-01-25T01:22:36.812Z,1008.73
2019-01-25T01:23:36.821Z,1008.76
2019-01-25T01:24:36.833Z,1008.69
2019-01-25T01:25:36.835Z,1008.69
2019-01-25T01:26:36.839Z,1008.70
2019-01-25T01:27:36.900Z,1008.72
2019-01-25T01:28:36.863Z,1008.72
2019-01-25T01:29:36.865Z,1008.73
2019-01-25T01:30:36.876Z,1008.77
2019-01-25T01:31:36.874Z,1008.70
2019-01-25T01:32:36.887Z,1008.76
2019-01-25T01:33:36.890Z,1008.79
2019-01-25T01:34:36.899Z,1008.82
2019-01-25T01:35:36.925Z,1008.84
2019-01-25T01:36:36.916Z,1008.84
2019-01-25T01:37:36.917Z,1008.85
2019-01-25T01:38:36.926Z,1008.88
2019-01-25T01:39:36.939Z,1008.85
2019-01-25T01:40:36.934Z,1008.89
2019-01-25T01:41:36.948Z,1008.80
2019-01-25T01:42:36.952Z,1008.79
2019-01-25T01:43:36.956Z,1008.75
2019-01-25T01:44:36.966Z,1008.76
2019-01-25T01:45:36.970Z,1008.75
2019-01-25T01:46:36.980Z,1008.77
2019-01-25T01:47:37.004Z,1008.77
2019-01-25T01:48:37.013Z,1008.77
2019-01-25T01:51:37.013Z,1008.82
2019-01-25T01:52:37.020Z,1008.87
2019-01-25T01:53:37.027Z,1008.88
2019-01-25T01:54:37.032Z,1008.89
2019-01-25T01:55:37.040Z,1008.87
2019-01-25T01:56:37.055Z,1008.92
2019-01-25T01:57:37.075Z,1008.92
2019-01-25T01:58:37.388Z,1008.99
2019-01-25T01:59:37.070Z,1009.02
2019-01-25T02:00:37.070Z,1009.01
2019-01-25T02:01:37.089Z,1009.00
2019-01-25T02:02:37.085Z,1009.05
2019-01-25T02:03:37.102Z,1008.99
2019-01-25T02:04:37.102Z,1009.02
2019-01-25T02:05:37.106Z,1009.06
2019-01-25T02:06:37.117Z,1009.03
2019-01-25T02:07:37.178Z,1009.04
2019-01-25T02:08:37.126Z,1009.00
2019-01-25T02:09:37.133Z,1009.02
2019-01-25T02:10:37.150Z,1009.00
2019-01-25T02:11:37.148Z,1009.00
2019-01-25T02:12:37.174Z,1008.98
2019-01-25T02:13:37.160Z,1008.98
2019-01-25T02:14:37.168Z,1008.98
2019-01-25T02:15:37.174Z,1008.92
2019-01-25T02:16:37.181Z,1008.93
2019-01-25T02:17:37.183Z,1008.90
2019-01-25T02:18:37.193Z,1008.91
2019-01-25T02:19:37.203Z,1008.91
2019-01-25T02:20:37.206Z,1008.92
2019-01-25T02:21:37.217Z,1008.94
2019-01-25T02:22:37.244Z,1008.94
2019-01-25T02:23:37.228Z,1008.92
2019-01-25T02:24:37.231Z,1008.91
2019-01-25T02:25:37.240Z,1008.91
2019-01-25T02:26:37.244Z,1008.88
2019-01-25T02:27:37.266Z,1008.90
2019-01-25T02:28:37.296Z,1008.88
2019-01-25T02:29:37.272Z,1008.88
2019-01-25T02:30:37.312Z,1008.79
2019-01-25T02:31:37.286Z,1008.83
2019-01-25T02:32:37.329Z,1008.79
2019-01-25T02:33:37.295Z,1008.79
2019-01-25T02:34:37.303Z,1008.80
2019-01-25T02:35:37.314Z,1008.83
2019-01-25T02:36:37.317Z,1008.87
2019-01-25T02:37:37.329Z,1008.88
2019-01-25T02:38:37.326Z,1008.88
2019-01-25T02:39:37.334Z,1008.84
2019-01-25T02:40:39.185Z,1008.86
2019-01-25T02:41:37.353Z,1008.85
2019-01-25T02:42:37.368Z,1008.84
2019-01-25T02:43:37.367Z,1008.83
2019-01-25T02:44:37.371Z,1008.83
2019-01-25T02:45:37.374Z,1008.83
2019-01-25T02:46:37.383Z,1008.84
2019-01-25T02:47:37.395Z,1008.81
2019-01-25T02:48:37.398Z,1008.83
2019-01-25T02:49:37.403Z,1008.83
2019-01-25T02:50:37.425Z,1008.82
2019-01-25T02:51:37.423Z,1008.82
2019-01-25T02:52:37.425Z,1008.82
2019-01-25T02:53:37.430Z,1008.82
2019-01-25T02:54:37.451Z,1008.81
2019-01-25T02:55:37.444Z,1008.81
2019-01-25T02:56:37.450Z,1008.78
2019-01-25T02:57:37.460Z,1008.81
2019-01-25T02:58:37.467Z,1008.87
2019-01-25T02:59:37.470Z,1008.85
2019-01-25T03:00:37.516Z,1008.81
2019-01-25T03:01:37.635Z,1008.76
2019-01-25T03:02:37.494Z,1008.73
2019-01-25T03:03:37.501Z,1008.74
2019-01-25T03:04:37.518Z,1008.77
2019-01-25T03:05:37.512Z,1008.74
2019-01-25T03:06:37.516Z,1008.77
2019-01-25T03:07:37.527Z,1008.76
2019-01-25T03:08:37.529Z,1008.77
2019-01-25T03:09:37.554Z,1008.82
2019-01-25T03:10:37.544Z,1008.80
2019-01-25T03:11:37.564Z,1008.81
2019-01-25T03:12:37.559Z,1008.81
2019-01-25T03:13:37.567Z,1008.83
2019-01-25T03:14:37.583Z,1008.87
2019-01-25T03:15:37.582Z,1008.80
2019-01-25T03:16:37.608Z,1008.81
2019-01-25T03:17:37.608Z,1008.79
2019-01-25T03:18:37.601Z,1008.75
2019-01-25T03:19:37.605Z,1008.77
2019-01-25T03:20:37.608Z,1008.78
2019-01-25T03:21:37.620Z,1008.73
2019-01-25T03:22:37.627Z,1008.76
2019-01-25T03:23:37.635Z,1008.70
2019-01-25T03:24:37.646Z,1008.70
2019-01-25T03:25:37.645Z,1008.72
2019-01-25T03:26:37.653Z,1008.69
2019-01-25T03:27:37.688Z,1008.71
2019-01-25T03:28:37.661Z,1008.72
2019-01-25T03:29:37.686Z,1008.70
2019-01-25T03:30:37.682Z,1008.73
2019-01-25T03:31:38.099Z,1008.76
2019-01-25T03:32:37.692Z,1008.78
2019-01-25T03:33:37.698Z,1008.74
2019-01-25T03:34:37.706Z,1008.71
2019-01-25T03:35:37.711Z,1008.73
2019-01-25T03:36:37.713Z,1008.70
2019-01-25T03:37:37.730Z,1008.68
2019-01-25T03:38:37.727Z,1008.67
2019-01-25T03:39:37.752Z,1008.68
2019-01-25T03:40:37.747Z,1008.67
2019-01-25T03:41:37.749Z,1008.70
2019-01-25T03:42:37.769Z,1008.72
2019-01-25T03:43:37.771Z,1008.71
2019-01-25T03:44:37.768Z,1008.70
2019-01-25T03:45:37.774Z,1008.72
2019-01-25T03:46:37.786Z,1008.70
2019-01-25T03:47:37.795Z,1008.68
2019-01-25T03:48:37.797Z,1008.67
2019-01-25T03:49:37.866Z,1008.69
2019-01-25T03:50:37.813Z,1008.65
2019-01-25T03:51:37.822Z,1008.64
2019-01-25T03:52:37.824Z,1008.64
2019-01-25T03:53:37.836Z,1008.67
2019-01-25T03:54:37.839Z,1008.67
2019-01-25T03:55:37.844Z,1008.66
2019-01-25T03:56:37.849Z,1008.63
2019-01-25T03:57:37.879Z,1008.66
2019-01-25T03:58:37.872Z,1008.66
2019-01-25T03:59:37.873Z,1008.64
2019-01-25T04:00:37.886Z,1008.67
2019-01-25T04:01:37.884Z,1008.68
2019-01-25T04:02:37.894Z,1008.68
2019-01-25T04:03:37.898Z,1008.70
2019-01-25T04:04:37.905Z,1008.69
2019-01-25T04:05:37.913Z,1008.66
2019-01-25T04:06:37.919Z,1008.69
2019-01-25T04:07:37.927Z,1008.71
2019-01-25T04:08:37.949Z,1008.69
2019-01-25T04:09:38.018Z,1008.72
2019-01-25T04:10:37.947Z,1008.69
2019-01-25T04:11:37.954Z,1008.75
2019-01-25T04:12:37.965Z,1008.72
2019-01-25T04:13:37.967Z,1008.76
2019-01-25T04:14:37.971Z,1008.78
2019-01-25T04:15:37.983Z,1008.78
2019-01-25T04:16:37.986Z,1008.75
2019-01-25T04:17:37.990Z,1008.76
2019-01-25T04:18:38.003Z,1008.80
2019-01-25T04:19:38.012Z,1008.81
2019-01-25T04:20:38.010Z,1008.81
2019-01-25T04:21:38.021Z,1008.84
2019-01-25T04:22:38.026Z,1008.84
2019-01-25T04:23:38.030Z,1008.82
2019-01-25T04:24:38.038Z,1008.82
2019-01-25T04:25:38.047Z,1008.79
2019-01-25T04:26:38.052Z,1008.78
2019-01-25T04:27:38.071Z,1008.72
2019-01-25T04:28:38.082Z,1008.69
2019-01-25T04:29:38.073Z,1008.67
2019-01-25T04:30:38.083Z,1008.67
2019-01-25T04:31:38.084Z,1008.69
2019-01-25T04:32:38.090Z,1008.73
2019-01-25T04:33:38.099Z,1008.73
2019-01-25T04:34:38.104Z,1008.72
2019-01-25T04:35:38.113Z,1008.68
2019-01-25T04:36:38.120Z,1008.66
2019-01-25T04:37:38.122Z,1008.69
2019-01-25T04:38:38.131Z,1008.72
2019-01-25T04:39:38.145Z,1008.79
2019-01-25T04:40:38.144Z,1008.77
2019-01-25T04:41:38.164Z,1008.75
2019-01-25T04:42:38.157Z,1008.76
2019-01-25T04:43:38.169Z,1008.73
2019-01-25T04:44:38.170Z,1008.69
2019-01-25T04:45:38.176Z,1008.72
2019-01-25T04:46:38.184Z,1008.63
2019-01-25T04:47:38.191Z,1008.66
2019-01-25T04:48:38.199Z,1008.65
2019-01-25T04:49:38.204Z,1008.70
2019-01-25T04:50:38.215Z,1008.62
2019-01-25T04:51:38.228Z,1008.63
2019-01-25T04:52:38.228Z,1008.66
2019-01-25T04:53:38.237Z,1008.66
2019-01-25T04:54:38.243Z,1008.65
2019-01-25T04:55:38.247Z,1008.67
2019-01-25T04:56:38.249Z,1008.68
2019-01-25T04:57:38.257Z,1008.72
2019-01-25T04:58:38.262Z,1008.73
2019-01-25T04:59:38.324Z,1008.77
2019-01-25T05:00:38.283Z,1008.72
2019-01-25T05:01:38.295Z,1008.69
2019-01-25T05:02:38.297Z,1008.73
2019-01-25T05:03:38.288Z,1008.70
2019-01-25T05:04:38.326Z,1008.79
2019-01-25T05:05:38.299Z,1008.77
2019-01-25T05:06:38.307Z,1008.80
2019-01-25T05:07:38.315Z,1008.78
2019-01-25T05:08:38.323Z,1008.82
2019-01-25T05:09:38.328Z,1008.80
2019-01-25T05:10:38.354Z,1008.84
2019-01-25T05:11:38.352Z,1008.88
2019-01-25T05:12:38.372Z,1008.92
2019-01-25T05:13:38.354Z,1008.92
2019-01-25T05:14:38.364Z,1008.92
2019-01-25T05:15:38.375Z,1008.91
2019-01-25T05:16:38.377Z,1008.92
2019-01-25T05:17:38.384Z,1008.90
2019-01-25T05:18:38.392Z,1008.90
2019-01-25T05:19:38.397Z,1008.90
2019-01-25T05:20:38.402Z,1008.93
2019-01-25T05:21:38.406Z,1008.93
2019-01-25T05:22:38.417Z,1008.93
2019-01-25T05:23:38.429Z,1008.97
2019-01-25T05:24:38.435Z,1008.97
2019-01-25T05:25:38.440Z,1008.97
2019-01-25T05:26:38.443Z,1008.96
2019-01-25T05:27:38.460Z,1008.98
2019-01-25T05:28:38.458Z,1008.94
2019-01-25T05:29:38.461Z,1008.96
2019-01-25T05:30:38.470Z,1008.95
2019-01-25T05:31:38.475Z,1008.93
2019-01-25T05:32:38.483Z,1008.98
2019-01-25T05:33:38.497Z,1008.97
2019-01-25T05:34:38.498Z,1008.97
2019-01-25T05:35:38.503Z,1009.01
2019-01-25T05:36:38.506Z,1009.04
2019-01-25T05:37:38.544Z,1009.05
2019-01-25T05:38:38.528Z,1009.04
2019-01-25T05:39:38.533Z,1009.07
2019-01-25T05:40:38.539Z,1009.11
2019-01-25T05:41:38.546Z,1009.07
2019-01-25T05:42:38.552Z,1009.08
2019-01-25T05:43:38.560Z,1009.09
2019-01-25T05:44:38.571Z,1009.12
2019-01-25T05:45:38.571Z,1009.11
2019-01-25T05:46:38.606Z,1009.12
2019-01-25T05:47:38.585Z,1009.14
2019-01-25T05:48:38.598Z,1009.13
2019-01-25T05:49:38.602Z,1009.16
2019-01-25T05:50:38.600Z,1009.16
2019-01-25T05:51:38.611Z,1009.16
2019-01-25T05:52:38.622Z,1009.20
2019-01-25T05:53:38.645Z,1009.19
2019-01-25T05:54:38.628Z,1009.20
2019-01-25T05:55:38.639Z,1009.24
2019-01-25T05:56:38.644Z,1009.24
2019-01-25T05:57:38.653Z,1009.20
2019-01-25T05:58:38.663Z,1009.18
2019-01-25T05:59:38.666Z,1009.22
2019-01-25T06:00:38.671Z,1009.21
2019-01-25T06:01:38.694Z,1009.17
2019-01-25T06:02:38.705Z,1009.16
2019-01-25T06:03:38.705Z,1009.16
2019-01-25T06:04:38.712Z,1009.13
2019-01-25T06:05:38.699Z,1009.10
2019-01-25T06:06:38.705Z,1009.11
2019-01-25T06:07:38.715Z,1009.14
2019-01-25T06:08:43.747Z,1009.14
2019-01-25T06:09:38.727Z,1009.18
2019-01-25T06:10:38.731Z,1009.16
2019-01-25T06:11:38.752Z,1009.15
2019-01-25T06:12:38.746Z,1009.17
2019-01-25T06:13:38.752Z,1009.19
2019-01-25T06:14:38.757Z,1009.17
2019-01-25T06:15:38.767Z,1009.20
2019-01-25T06:16:38.770Z,1009.22
2019-01-25T06:17:38.781Z,1009.21
2019-01-25T06:18:38.801Z,1009.27
2019-01-25T06:19:38.794Z,1009.26
2019-01-25T06:20:38.809Z,1009.27
2019-01-25T06:21:38.805Z,1009.26
2019-01-25T06:22:38.813Z,1009.28
2019-01-25T06:23:38.813Z,1009.24
2019-01-25T06:24:38.824Z,1009.24
2019-01-25T06:25:38.829Z,1009.24
2019-01-25T06:26:38.837Z,1009.22
2019-01-25T06:27:38.850Z,1009.24
2019-01-25T06:28:38.854Z,1009.20
2019-01-25T06:29:38.899Z,1009.21
2019-01-25T06:30:38.869Z,1009.18
2019-01-25T06:31:38.866Z,1009.13
2019-01-25T06:32:38.873Z,1009.21
2019-01-25T06:33:38.885Z,1009.25
2019-01-25T06:34:38.889Z,1009.21
2019-01-25T06:35:38.889Z,1009.23
2019-01-25T06:36:38.894Z,1009.26
2019-01-25T06:37:38.905Z,1009.24
2019-01-25T06:38:38.914Z,1009.28
2019-01-25T06:39:38.912Z,1009.28
2019-01-25T06:40:38.921Z,1009.27
2019-01-25T06:41:43.962Z,1009.24
2019-01-25T06:42:38.943Z,1009.24
2019-01-25T06:43:38.944Z,1009.20
2019-01-25T06:44:38.945Z,1009.22
2019-01-25T06:45:38.954Z,1009.21
2019-01-25T06:46:38.960Z,1009.24
2019-01-25T06:47:38.964Z,1009.28
2019-01-25T06:48:38.967Z,1009.30
2019-01-25T06:49:38.976Z,1009.32
2019-01-25T06:50:38.982Z,1009.30
2019-01-25T06:51:38.988Z,1009.32
2019-01-25T06:52:38.995Z,1009.29
2019-01-25T06:53:39.024Z,1009.27
2019-01-25T06:54:39.009Z,1009.28
2019-01-25T06:55:39.030Z,1009.30
2019-01-25T06:56:39.017Z,1009.33
2019-01-25T06:57:39.030Z,1009.31
2019-01-25T06:58:39.031Z,1009.33
2019-01-25T06:59:39.039Z,1009.31
2019-01-25T07:00:39.056Z,1009.30
2019-01-25T07:01:39.109Z,1009.29
2019-01-25T07:02:39.061Z,1009.31
2019-01-25T07:03:39.064Z,1009.33
2019-01-25T07:04:39.073Z,1009.34
2019-01-25T07:05:39.080Z,1009.36
2019-01-25T07:06:39.094Z,1009.37
2019-01-25T07:07:39.102Z,1009.40
2019-01-25T07:08:39.107Z,1009.37
2019-01-25T07:09:39.129Z,1009.36
2019-01-25T07:10:39.107Z,1009.37
2019-01-25T07:11:42.196Z,1009.37
2019-01-25T07:12:39.122Z,1009.39
2019-01-25T07:13:39.148Z,1009.36
2019-01-25T07:14:39.134Z,1009.40
2019-01-25T07:15:39.148Z,1009.41
2019-01-25T07:16:39.168Z,1009.36
2019-01-25T07:17:39.148Z,1009.39
2019-01-25T07:18:39.158Z,1009.39
2019-01-25T07:19:39.163Z,1009.37
2019-01-25T07:20:39.170Z,1009.35
2019-01-25T07:21:39.184Z,1009.36
2019-01-25T07:22:39.187Z,1009.38
2019-01-25T07:23:39.191Z,1009.37
2019-01-25T07:24:39.201Z,1009.37
2019-01-25T07:25:39.201Z,1009.37
2019-01-25T07:26:39.214Z,1009.38
2019-01-25T07:27:39.213Z,1009.37
2019-01-25T07:28:39.227Z,1009.42
2019-01-25T07:29:39.227Z,1009.38
2019-01-25T07:30:39.233Z,1009.39
2019-01-25T07:31:39.275Z,1009.39
2019-01-25T07:32:39.269Z,1009.44
2019-01-25T07:33:39.296Z,1009.43
2019-01-25T07:34:39.305Z,1009.43
2019-01-25T07:35:39.266Z,1009.40
2019-01-25T07:36:39.282Z,1009.49
2019-01-25T07:37:39.299Z,1009.51
2019-01-25T07:38:39.290Z,1009.52
2019-01-25T07:39:39.313Z,1009.53
2019-01-25T07:40:39.295Z,1009.56
2019-01-25T07:41:39.306Z,1009.53
2019-01-25T07:42:39.322Z,1009.56
2019-01-25T07:43:39.333Z,1009.54
2019-01-25T07:44:39.317Z,1009.66
2019-01-25T07:45:39.349Z,1009.62
2019-01-25T07:46:39.346Z,1009.59
2019-01-25T07:47:39.344Z,1009.62
2019-01-25T07:48:39.345Z,1009.59
2019-01-25T07:49:39.387Z,1009.59
2019-01-25T07:50:39.358Z,1009.60
2019-01-25T07:51:39.370Z,1009.62
2019-01-25T07:52:39.399Z,1009.59
2019-01-25T07:53:39.401Z,1009.57
2019-01-25T07:54:39.453Z,1009.54
2019-01-25T07:55:39.388Z,1009.51
2019-01-25T07:56:39.445Z,1009.54
2019-01-25T07:57:39.406Z,1009.47
2019-01-25T07:58:39.449Z,1009.45
2019-01-25T07:59:39.412Z,1009.44
2019-01-25T08:00:39.460Z,1009.43
2019-01-25T08:01:39.457Z,1009.44
2019-01-25T08:02:39.432Z,1009.41
2019-01-25T08:03:39.440Z,1009.38
2019-01-25T08:04:39.571Z,1009.39
2019-01-25T08:05:39.551Z,1009.38
2019-01-25T08:07:39.519Z,1009.34
2019-01-25T08:08:40.154Z,1009.36
2019-01-25T08:09:39.621Z,1009.33
2019-01-25T08:10:39.494Z,1009.31
2019-01-25T08:11:39.510Z,1009.30
2019-01-25T08:12:39.538Z,1009.30
2019-01-25T08:13:39.515Z,1009.33
2019-01-25T08:14:39.507Z,1009.32
2019-01-25T08:15:41.572Z,1009.32
2019-01-25T08:16:39.537Z,1009.32
2019-01-25T08:17:39.546Z,1009.33
2019-01-25T08:18:39.536Z,1009.33
2019-01-25T08:19:39.574Z,1009.39
2019-01-25T08:20:39.558Z,1009.41
2019-01-25T08:21:39.555Z,1009.37
2019-01-25T08:22:39.568Z,1009.40
2019-01-25T08:23:39.622Z,1009.36
2019-01-25T08:25:39.578Z,1009.39
2019-01-25T08:26:39.583Z,1009.34
2019-01-25T08:27:39.620Z,1009.29
2019-01-25T08:28:39.608Z,1009.39
2019-01-25T08:29:39.604Z,1009.38
2019-01-25T08:30:39.621Z,1009.32
2019-01-25T08:31:39.619Z,1009.38
2019-01-25T08:32:39.623Z,1009.40
2019-01-25T08:33:39.633Z,1009.41
2019-01-25T08:34:39.647Z,1009.43
2019-01-25T08:35:39.640Z,1009.44
2019-01-25T08:36:39.654Z,1009.48
2019-01-25T08:37:39.656Z,1009.47
2019-01-25T08:38:39.664Z,1009.42
2019-01-25T08:39:39.693Z,1009.46
2019-01-25T08:40:41.867Z,1009.44
2019-01-25T08:41:39.680Z,1009.49
2019-01-25T08:42:39.698Z,1009.49
2019-01-25T08:43:39.697Z,1009.50
2019-01-25T08:44:39.736Z,1009.55
2019-01-25T08:45:39.726Z,1009.53
2019-01-25T08:46:39.740Z,1009.55
2019-01-25T08:47:39.724Z,1009.56
2019-01-25T08:48:39.942Z,1009.60
2019-01-25T08:49:39.734Z,1009.57
2019-01-25T08:50:39.751Z,1009.61
2019-01-25T08:51:39.753Z,1009.57
2019-01-25T08:52:39.897Z,1009.62
2019-01-25T08:53:41.441Z,1009.62
2019-01-25T08:54:39.764Z,1009.58
2019-01-25T08:55:39.781Z,1009.60
2019-01-25T08:56:39.783Z,1009.62
2019-01-25T08:57:39.780Z,1009.62
2019-01-25T08:58:39.789Z,1009.64
2019-01-25T08:59:39.806Z,1009.65
2019-01-25T09:00:39.801Z,1009.61
2019-01-25T09:01:39.806Z,1009.63
2019-01-25T09:02:39.832Z,1009.65
2019-01-25T09:03:39.818Z,1009.65
2019-01-25T09:04:39.829Z,1009.68
2019-01-25T09:05:39.834Z,1009.78
2019-01-25T09:06:39.844Z,1009.80
2019-01-25T09:07:39.849Z,1009.81
2019-01-25T09:08:39.861Z,1009.80
2019-01-25T09:09:39.858Z,1009.74
2019-01-25T09:10:39.861Z,1009.75
2019-01-25T09:11:39.883Z,1009.73
2019-01-25T09:12:39.877Z,1009.75
2019-01-25T09:13:39.886Z,1009.76
2019-01-25T09:14:39.902Z,1009.83
2019-01-25T09:15:39.897Z,1009.83
2019-01-25T09:16:39.911Z,1009.82
2019-01-25T09:17:39.910Z,1009.86
2019-01-25T09:18:39.916Z,1009.84
2019-01-25T09:19:39.920Z,1009.83
2019-01-25T09:20:39.938Z,1009.79
2019-01-25T09:21:39.953Z,1009.78
2019-01-25T09:22:39.941Z,1009.75
2019-01-25T09:23:39.953Z,1009.68
2019-01-25T09:24:39.962Z,1009.61
2019-01-25T09:25:39.978Z,1009.59
2019-01-25T09:26:39.965Z,1009.61
2019-01-25T09:27:39.972Z,1009.55
2019-01-25T09:28:39.990Z,1009.53
2019-01-25T09:29:39.988Z,1009.53
2019-01-25T09:30:40.012Z,1009.55
2019-01-25T09:31:40.001Z,1009.53
2019-01-25T09:32:40.029Z,1009.54
2019-01-25T09:33:40.011Z,1009.57
2019-01-25T09:35:40.029Z,1009.67
2019-01-25T09:36:40.035Z,1009.72
2019-01-25T09:37:40.053Z,1009.72
2019-01-25T09:38:40.047Z,1009.73
2019-01-25T09:39:40.053Z,1009.75
2019-01-25T09:40:40.059Z,1009.76
2019-01-25T09:41:40.068Z,1009.79
2019-01-25T09:42:40.076Z,1009.70
2019-01-25T09:43:40.087Z,1009.68
2019-01-25T09:44:40.087Z,1009.69
2019-01-25T09:45:40.106Z,1009.68
2019-01-25T09:46:40.116Z,1009.65
2019-01-25T09:47:40.111Z,1009.62
2019-01-25T09:48:40.117Z,1009.68
2019-01-25T09:49:40.124Z,1009.64
2019-01-25T09:50:40.133Z,1009.63
2019-01-25T09:51:40.139Z,1009.64
2019-01-25T09:52:40.141Z,1009.66
2019-01-25T09:53:40.149Z,1009.66
2019-01-25T09:54:40.155Z,1009.67
2019-01-25T09:55:40.165Z,1009.65
2019-01-25T09:56:42.644Z,1009.67
2019-01-25T09:57:40.186Z,1009.60
2019-01-25T09:58:40.177Z,1009.55
2019-01-25T09:59:40.192Z,1009.51
2019-01-25T10:00:40.195Z,1009.49
2019-01-25T10:01:40.195Z,1009.48
2019-01-25T10:02:40.205Z,1009.45
2019-01-25T10:03:40.209Z,1009.43
2019-01-25T10:04:40.217Z,1009.37
2019-01-25T10:05:40.232Z,1009.36
2019-01-25T10:06:40.233Z,1009.28
2019-01-25T10:07:40.239Z,1009.25
2019-01-25T10:08:40.247Z,1009.20
2019-01-25T10:09:40.268Z,1009.23
2019-01-25T10:10:40.262Z,1009.24
2019-01-25T10:11:40.266Z,1009.16
2019-01-25T10:12:43.365Z,1009.14
2019-01-25T10:13:40.282Z,1009.12
2019-01-25T10:14:40.288Z,1009.16
2019-01-25T10:15:40.298Z,1009.18
2019-01-25T10:16:40.302Z,1009.15
2019-01-25T10:17:40.311Z,1009.20
2019-01-25T10:18:40.331Z,1009.25
2019-01-25T10:19:40.328Z,1009.30
2019-01-25T10:20:40.340Z,1009.32
2019-01-25T10:21:40.339Z,1009.36
2019-01-25T10:22:40.346Z,1009.38
2019-01-25T10:23:40.352Z,1009.45
2019-01-25T10:24:40.360Z,1009.44
2019-01-25T10:25:40.386Z,1009.43
2019-01-25T10:26:40.376Z,1009.43
2019-01-25T10:27:40.397Z,1009.38
2019-01-25T10:28:40.393Z,1009.37
2019-01-25T10:29:40.396Z,1009.34
2019-01-25T10:30:40.449Z,1009.37
2019-01-25T10:31:40.422Z,1009.30
2019-01-25T10:32:40.429Z,1009.32
2019-01-25T10:33:40.433Z,1009.32
2019-01-25T10:34:40.444Z,1009.34
2019-01-25T10:35:40.441Z,1009.34
2019-01-25T10:36:40.449Z,1009.38
2019-01-25T10:37:40.457Z,1009.35
2019-01-25T10:38:40.462Z,1009.35
2019-01-25T10:39:40.467Z,1009.35
2019-01-25T10:40:40.477Z,1009.36
2019-01-25T10:41:40.504Z,1009.38
2019-01-25T10:42:45.620Z,1009.30
2019-01-25T10:43:40.530Z,1009.32
2019-01-25T10:44:40.530Z,1009.30
2019-01-25T10:45:40.531Z,1009.23
2019-01-25T10:46:40.522Z,1009.22
2019-01-25T10:47:40.537Z,1009.21
2019-01-25T10:48:40.546Z,1009.17
2019-01-25T10:49:40.561Z,1009.17
2019-01-25T10:50:40.561Z,1009.19
2019-01-25T10:51:40.567Z,1009.13
2019-01-25T10:52:40.565Z,1009.09
2019-01-25T10:53:40.573Z,1009.09
2019-01-25T10:54:40.588Z,1009.05
2019-01-25T10:55:40.598Z,1009.08
2019-01-25T10:56:42.042Z,1009.09
2019-01-25T10:57:40.603Z,1009.09
2019-01-25T10:58:40.608Z,1009.08
2019-01-25T10:59:40.613Z,1009.12
2019-01-25T11:00:40.625Z,1009.09
2019-01-25T11:01:40.628Z,1009.06
2019-01-25T11:02:40.635Z,1009.06
2019-01-25T11:03:40.645Z,1009.06
2019-01-25T11:04:40.669Z,1009.06
2019-01-25T11:05:40.661Z,1009.00
2019-01-25T11:06:40.685Z,1009.00
2019-01-25T11:07:40.685Z,1008.92
2019-01-25T11:08:40.683Z,1008.87
2019-01-25T11:09:40.702Z,1008.85
2019-01-25T11:10:40.713Z,1008.79
2019-01-25T11:11:40.724Z,1008.84
2019-01-25T11:12:40.708Z,1008.79
2019-01-25T11:13:40.717Z,1008.75
2019-01-25T11:14:40.726Z,1008.68
2019-01-25T11:15:40.734Z,1008.69
2019-01-25T11:16:40.742Z,1008.71
2019-01-25T11:17:40.752Z,1008.62
2019-01-25T11:18:40.754Z,1008.66
2019-01-25T11:19:40.761Z,1008.64
2019-01-25T11:20:40.770Z,1008.67
2019-01-25T11:21:40.778Z,1008.66
2019-01-25T11:22:40.785Z,1008.68
2019-01-25T11:23:40.799Z,1008.67
2019-01-25T11:24:40.815Z,1008.63
2019-01-25T11:25:40.808Z,1008.63
2019-01-25T11:26:40.818Z,1008.66
2019-01-25T11:27:40.836Z,1008.62
2019-01-25T11:28:40.840Z,1008.61
2019-01-25T11:29:40.854Z,1008.54
2019-01-25T11:30:40.852Z,1008.55
2019-01-25T11:31:40.885Z,1008.57
2019-01-25T11:32:40.871Z,1008.53
2019-01-25T11:33:40.871Z,1008.51
2019-01-25T11:34:40.876Z,1008.49
2019-01-25T11:35:40.884Z,1008.53
2019-01-25T11:36:40.892Z,1008.58
2019-01-25T11:37:42.029Z,1008.56
2019-01-25T11:38:40.906Z,1008.56
2019-01-25T11:39:40.920Z,1008.59
2019-01-25T11:40:40.925Z,1008.64
2019-01-25T11:41:40.932Z,1008.63
2019-01-25T11:42:40.944Z,1008.62
2019-01-25T11:43:40.959Z,1008.65
2019-01-25T11:44:40.954Z,1008.67
2019-01-25T11:45:40.962Z,1008.69
2019-01-25T11:46:40.972Z,1008.69
2019-01-25T11:47:40.997Z,1008.72
2019-01-25T11:49:40.996Z,1008.73
2019-01-25T11:50:41.002Z,1008.79
2019-01-25T11:51:41.011Z,1008.76
2019-01-25T11:52:41.017Z,1008.73
2019-01-25T11:53:41.025Z,1008.75
2019-01-25T11:54:41.035Z,1008.82
2019-01-25T11:55:41.039Z,1008.85
2019-01-25T11:56:41.045Z,1008.84
2019-01-25T11:57:43.275Z,1008.84
2019-01-25T11:58:41.075Z,1008.79
2019-01-25T11:59:41.141Z,1008.81
2019-01-25T12:00:41.340Z,1008.78
2019-01-25T12:01:41.092Z,1008.75
2019-01-25T12:02:41.100Z,1008.72
2019-01-25T12:03:41.118Z,1008.70
2019-01-25T12:04:41.107Z,1008.71
2019-01-25T12:05:41.117Z,1008.68
2019-01-25T12:06:41.140Z,1008.67
2019-01-25T12:07:41.132Z,1008.66
2019-01-25T12:08:41.143Z,1008.59
2019-01-25T12:09:41.149Z,1008.56
2019-01-25T12:10:42.635Z,1008.50
2019-01-25T12:11:41.165Z,1008.50